KZR345 UTDD-UAAA
Flight info
| Callsign | KZR345 |
|---|---|
| Flight time | 1h 33m |
| Altitude | 39000 |
| Route | JD5 JD B350 VADER L135 LAKEL LAKEL2J |
| Aircraft | A20N/M-SDE2E3FGHIRWXY/LB1 |
Departure
| Time | 2026-04-20 16:58 |
|---|---|
| Airport | Dushanbe International Airport (UTDD) |
Arrival
| Time | 2026-04-20 18:32 |
|---|---|
| Airport | Almaty International Airport (UAAA) |
| Time | Latitude | Longitude | Altitude | Speed | Heading |
|---|---|---|---|---|---|
| 2026-04-20 16:25 | 38.54781 | 68.81271 | 2582 ft | 0 kts | 360° |
| 2026-04-20 16:42 | 38.54774 | 68.81271 | 2575 ft | 4 kts | 360° |
| 2026-04-20 16:42 | 38.54745 | 68.81271 | 2573 ft | 5 kts | 360° |
| 2026-04-20 16:43 | 38.54702 | 68.81267 | 2576 ft | 6 kts | 30° |
| 2026-04-20 16:43 | 38.54688 | 68.81220 | 2578 ft | 2 kts | 89° |
| 2026-04-20 16:43 | 38.54688 | 68.81219 | 2578 ft | 0 kts | 89° |
| 2026-04-20 16:49 | 38.54690 | 68.81204 | 2576 ft | 3 kts | 131° |
| 2026-04-20 16:49 | 38.54709 | 68.81198 | 2575 ft | 3 kts | 193° |
| 2026-04-20 16:49 | 38.54716 | 68.81199 | 2577 ft | 0 kts | 186° |
| 2026-04-20 16:50 | 38.54700 | 68.81196 | 2579 ft | 3 kts | 195° |
| 2026-04-20 16:50 | 38.54691 | 68.81175 | 2580 ft | 4 kts | 243° |
| 2026-04-20 16:50 | 38.54691 | 68.81127 | 2578 ft | 7 kts | 271° |
| 2026-04-20 16:51 | 38.54692 | 68.81050 | 2581 ft | 10 kts | 271° |
| 2026-04-20 16:51 | 38.54692 | 68.80945 | 2581 ft | 13 kts | 269° |
| 2026-04-20 16:51 | 38.54691 | 68.80815 | 2581 ft | 16 kts | 269° |
| 2026-04-20 16:51 | 38.54692 | 68.80693 | 2581 ft | 12 kts | 271° |
| 2026-04-20 16:52 | 38.54695 | 68.80576 | 2581 ft | 15 kts | 272° |
| 2026-04-20 16:52 | 38.54697 | 68.80473 | 2581 ft | 7 kts | 272° |
| 2026-04-20 16:52 | 38.54715 | 68.80430 | 2579 ft | 3 kts | 304° |
| 2026-04-20 16:52 | 38.54711 | 68.80425 | 2578 ft | 0 kts | 231° |
| 2026-04-20 16:53 | 38.54696 | 68.80424 | 2575 ft | 3 kts | 171° |
| 2026-04-20 16:53 | 38.54694 | 68.80435 | 2579 ft | 3 kts | 111° |
| 2026-04-20 16:53 | 38.54691 | 68.80500 | 2581 ft | 11 kts | 88° |
| 2026-04-20 16:53 | 38.54692 | 68.80614 | 2581 ft | 9 kts | 90° |
| 2026-04-20 16:54 | 38.54651 | 68.80670 | 2576 ft | 10 kts | 176° |
| 2026-04-20 16:54 | 38.54575 | 68.80670 | 2580 ft | 7 kts | 181° |
| 2026-04-20 16:54 | 38.54567 | 68.80670 | 2580 ft | 0 kts | 181° |
| 2026-04-20 16:55 | 38.54566 | 68.80670 | 2580 ft | 1 kts | 181° |
| 2026-04-20 16:55 | 38.54545 | 68.80670 | 2577 ft | 5 kts | 181° |
| 2026-04-20 16:55 | 38.54500 | 68.80669 | 2575 ft | 8 kts | 181° |
| 2026-04-20 16:55 | 38.54433 | 68.80668 | 2578 ft | 11 kts | 181° |
| 2026-04-20 16:56 | 38.54371 | 68.80720 | 2579 ft | 12 kts | 102° |
| 2026-04-20 16:56 | 38.54372 | 68.80758 | 2576 ft | 2 kts | 92° |
| 2026-04-20 16:56 | 38.54372 | 68.80768 | 2576 ft | 0 kts | 90° |
| 2026-04-20 16:57 | 38.54372 | 68.80833 | 2582 ft | 32 kts | 90° |
| 2026-04-20 16:57 | 38.54372 | 68.81433 | 2578 ft | 100 kts | 90° |
| 2026-04-20 16:58 | 38.54371 | 68.82557 | 2575 ft | 151 kts | 90° |
| 2026-04-20 16:58 | 38.54369 | 68.84026 | 2863 ft | 170 kts | 90° |
| 2026-04-20 16:58 | 38.54358 | 68.85532 | 3518 ft | 169 kts | 90° |
| 2026-04-20 16:58 | 38.54335 | 68.87024 | 4183 ft | 168 kts | 90° |
| 2026-04-20 16:59 | 38.54310 | 68.88466 | 4898 ft | 159 kts | 91° |
| 2026-04-20 16:59 | 38.54292 | 68.89891 | 5523 ft | 162 kts | 91° |
| 2026-04-20 16:59 | 38.54281 | 68.91367 | 6047 ft | 175 kts | 91° |
| 2026-04-20 16:59 | 38.54278 | 68.93014 | 6542 ft | 196 kts | 90° |
| 2026-04-20 17:00 | 38.54290 | 68.96913 | 7486 ft | 244 kts | 90° |
| 2026-04-20 17:00 | 38.54289 | 68.99181 | 8018 ft | 267 kts | 90° |
| 2026-04-20 17:00 | 38.54286 | 69.01644 | 8657 ft | 284 kts | 91° |
| 2026-04-20 17:01 | 38.54286 | 69.04191 | 9609 ft | 290 kts | 91° |
| 2026-04-20 17:01 | 38.53993 | 69.06755 | 10465 ft | 299 kts | 109° |
| 2026-04-20 17:01 | 38.52938 | 69.09141 | 10850 ft | 321 kts | 133° |
| 2026-04-20 17:01 | 38.51123 | 69.10917 | 11221 ft | 340 kts | 156° |
| 2026-04-20 17:02 | 38.48834 | 69.11673 | 12006 ft | 342 kts | 177° |
| 2026-04-20 17:02 | 38.46444 | 69.11616 | 12946 ft | 344 kts | 186° |
| 2026-04-20 17:02 | 38.44079 | 69.11360 | 13872 ft | 347 kts | 187° |
| 2026-04-20 17:02 | 38.41661 | 69.11070 | 14658 ft | 350 kts | 193° |
| 2026-04-20 17:03 | 38.39362 | 69.10100 | 15416 ft | 349 kts | 210° |
| 2026-04-20 17:03 | 38.37398 | 69.08306 | 16202 ft | 348 kts | 227° |
| 2026-04-20 17:03 | 38.35957 | 69.05842 | 16960 ft | 348 kts | 244° |
| 2026-04-20 17:03 | 38.35192 | 69.02924 | 17718 ft | 349 kts | 262° |
| 2026-04-20 17:04 | 38.35085 | 68.99823 | 18473 ft | 353 kts | 270° |
| 2026-04-20 17:04 | 38.35093 | 68.96671 | 18841 ft | 358 kts | 270° |
| 2026-04-20 17:04 | 38.35335 | 68.93516 | 18970 ft | 359 kts | 283° |
| 2026-04-20 17:04 | 38.36259 | 68.90553 | 19003 ft | 362 kts | 298° |
| 2026-04-20 17:05 | 38.37837 | 68.88032 | 19010 ft | 367 kts | 314° |
| 2026-04-20 17:05 | 38.39958 | 68.86180 | 19016 ft | 374 kts | 331° |
| 2026-04-20 17:05 | 38.42477 | 68.85190 | 19017 ft | 383 kts | 348° |
| 2026-04-20 17:05 | 38.45110 | 68.85047 | 19022 ft | 386 kts | 355° |
| 2026-04-20 17:06 | 38.47805 | 68.85403 | 19022 ft | 394 kts | 11° |
| 2026-04-20 17:06 | 38.50345 | 68.86762 | 19021 ft | 401 kts | 28° |
| 2026-04-20 17:06 | 38.52506 | 68.89049 | 19018 ft | 407 kts | 46° |
| 2026-04-20 17:06 | 38.54076 | 68.92059 | 19023 ft | 411 kts | 64° |
| 2026-04-20 17:07 | 38.54917 | 68.95546 | 19023 ft | 413 kts | 81° |
| 2026-04-20 17:07 | 38.54998 | 68.99203 | 19024 ft | 413 kts | 94° |
| 2026-04-20 17:07 | 38.54752 | 69.02863 | 19019 ft | 412 kts | 96° |
| 2026-04-20 17:07 | 38.54526 | 69.06510 | 19023 ft | 412 kts | 94° |
| 2026-04-20 17:08 | 38.54396 | 69.10121 | 19023 ft | 412 kts | 92° |
| 2026-04-20 17:08 | 38.54343 | 69.13778 | 19026 ft | 412 kts | 91° |
| 2026-04-20 17:08 | 38.54333 | 69.17433 | 19031 ft | 411 kts | 90° |
| 2026-04-20 17:08 | 38.54343 | 69.21137 | 19034 ft | 411 kts | 90° |
| 2026-04-20 17:09 | 38.54357 | 69.24739 | 19039 ft | 411 kts | 90° |
| 2026-04-20 17:09 | 38.54451 | 69.28388 | 19039 ft | 412 kts | 82° |
| 2026-04-20 17:09 | 38.55216 | 69.31918 | 19324 ft | 415 kts | 65° |
| 2026-04-20 17:09 | 38.56700 | 69.35059 | 20054 ft | 413 kts | 50° |
| 2026-04-20 17:10 | 38.58490 | 69.37956 | 20737 ft | 416 kts | 50° |
| 2026-04-20 17:10 | 38.60298 | 69.40869 | 21378 ft | 420 kts | 50° |
| 2026-04-20 17:10 | 38.62127 | 69.43811 | 22002 ft | 425 kts | 50° |
| 2026-04-20 17:10 | 38.63978 | 69.46791 | 22621 ft | 429 kts | 49° |
| 2026-04-20 17:11 | 38.65840 | 69.49793 | 23246 ft | 433 kts | 49° |
| 2026-04-20 17:11 | 38.67722 | 69.52829 | 23810 ft | 437 kts | 49° |
| 2026-04-20 17:11 | 38.69593 | 69.55851 | 24357 ft | 439 kts | 49° |
| 2026-04-20 17:11 | 38.71504 | 69.58941 | 24847 ft | 444 kts | 49° |
| 2026-04-20 17:12 | 38.73431 | 69.62060 | 25258 ft | 448 kts | 49° |
| 2026-04-20 17:12 | 38.75367 | 69.65194 | 25826 ft | 450 kts | 49° |
| 2026-04-20 17:12 | 38.77317 | 69.68355 | 26306 ft | 453 kts | 49° |
| 2026-04-20 17:12 | 38.79287 | 69.71549 | 26735 ft | 457 kts | 49° |
| 2026-04-20 17:13 | 38.81268 | 69.74767 | 27217 ft | 460 kts | 49° |
| 2026-04-20 17:13 | 38.83255 | 69.78000 | 27711 ft | 463 kts | 49° |
| 2026-04-20 17:13 | 38.85259 | 69.81262 | 28106 ft | 466 kts | 49° |
| 2026-04-20 17:13 | 38.87275 | 69.84546 | 28506 ft | 470 kts | 50° |
| 2026-04-20 17:14 | 38.89286 | 69.87826 | 28861 ft | 473 kts | 49° |
| 2026-04-20 17:14 | 38.91326 | 69.91159 | 29313 ft | 475 kts | 50° |
| 2026-04-20 17:14 | 38.92682 | 69.93374 | 29587 ft | 477 kts | 50° |
| 2026-04-20 17:14 | 38.95432 | 69.97875 | 30119 ft | 481 kts | 49° |
| 2026-04-20 17:15 | 38.97507 | 70.01271 | 30340 ft | 485 kts | 50° |
| 2026-04-20 17:15 | 38.99594 | 70.04695 | 30741 ft | 486 kts | 50° |
| 2026-04-20 17:15 | 39.01680 | 70.08121 | 31110 ft | 488 kts | 49° |
| 2026-04-20 17:15 | 39.03774 | 70.11562 | 31473 ft | 489 kts | 49° |
| 2026-04-20 17:16 | 39.05161 | 70.13843 | 31756 ft | 488 kts | 49° |
| 2026-04-20 17:16 | 39.07250 | 70.17284 | 32218 ft | 487 kts | 49° |
| 2026-04-20 17:16 | 39.10014 | 70.21842 | 32781 ft | 487 kts | 49° |
| 2026-04-20 17:16 | 39.12095 | 70.25277 | 33247 ft | 486 kts | 49° |
| 2026-04-20 17:17 | 39.14171 | 70.28707 | 33709 ft | 485 kts | 49° |
| 2026-04-20 17:17 | 39.16242 | 70.32133 | 34135 ft | 484 kts | 49° |
| 2026-04-20 17:17 | 39.18308 | 70.35554 | 34514 ft | 484 kts | 49° |
| 2026-04-20 17:17 | 39.19703 | 70.37867 | 34784 ft | 482 kts | 49° |
| 2026-04-20 17:18 | 39.22417 | 70.42371 | 35276 ft | 480 kts | 49° |
| 2026-04-20 17:18 | 39.23803 | 70.44673 | 35576 ft | 480 kts | 48° |
| 2026-04-20 17:18 | 39.25820 | 70.48046 | 36049 ft | 478 kts | 44° |
| 2026-04-20 17:18 | 39.27887 | 70.51380 | 36449 ft | 474 kts | 43° |
| 2026-04-20 17:19 | 39.29977 | 70.54678 | 36771 ft | 473 kts | 43° |
| 2026-04-20 17:19 | 39.32061 | 70.57959 | 37095 ft | 472 kts | 43° |
| 2026-04-20 17:19 | 39.34138 | 70.61240 | 37430 ft | 471 kts | 43° |
| 2026-04-20 17:19 | 39.36206 | 70.64520 | 37782 ft | 470 kts | 44° |
| 2026-04-20 17:20 | 39.38267 | 70.67794 | 38037 ft | 471 kts | 44° |
| 2026-04-20 17:20 | 39.42396 | 70.74383 | 38385 ft | 468 kts | 44° |
| 2026-04-20 17:21 | 39.46457 | 70.80904 | 38392 ft | 464 kts | 44° |
| 2026-04-20 17:21 | 39.48481 | 70.84160 | 38537 ft | 467 kts | 44° |
| 2026-04-20 17:21 | 39.49839 | 70.86343 | 38582 ft | 469 kts | 44° |
| 2026-04-20 17:21 | 39.52552 | 70.90717 | 38750 ft | 470 kts | 44° |
| 2026-04-20 17:22 | 39.54599 | 70.94023 | 38966 ft | 470 kts | 45° |
| 2026-04-20 17:22 | 39.56647 | 70.97334 | 39134 ft | 471 kts | 45° |
| 2026-04-20 17:22 | 39.58709 | 71.00667 | 39135 ft | 472 kts | 44° |
| 2026-04-20 17:23 | 39.62781 | 71.07281 | 39152 ft | 468 kts | 45° |
| 2026-04-20 17:23 | 39.66867 | 71.13924 | 39144 ft | 470 kts | 45° |
| 2026-04-20 17:24 | 39.70943 | 71.20566 | 39118 ft | 470 kts | 45° |
| 2026-04-20 17:24 | 39.75001 | 71.27199 | 39115 ft | 469 kts | 45° |
| 2026-04-20 17:25 | 39.79042 | 71.33805 | 39109 ft | 471 kts | 45° |
| 2026-04-20 17:25 | 39.83108 | 71.40468 | 39106 ft | 470 kts | 46° |
| 2026-04-20 17:26 | 39.87167 | 71.47136 | 39094 ft | 470 kts | 46° |
| 2026-04-20 17:26 | 39.91225 | 71.53815 | 39081 ft | 470 kts | 46° |
| 2026-04-20 17:26 | 39.93255 | 71.57161 | 38867 ft | 469 kts | 47° |
| 2026-04-20 17:27 | 39.95256 | 71.60461 | 39054 ft | 463 kts | 47° |
| 2026-04-20 17:27 | 39.99259 | 71.67076 | 39060 ft | 464 kts | 47° |
| 2026-04-20 17:28 | 40.03223 | 71.73643 | 39047 ft | 463 kts | 47° |
| 2026-04-20 17:28 | 40.07209 | 71.80260 | 39035 ft | 463 kts | 47° |
| 2026-04-20 17:29 | 40.11192 | 71.86887 | 39017 ft | 464 kts | 47° |
| 2026-04-20 17:29 | 40.15179 | 71.93534 | 39019 ft | 465 kts | 47° |
| 2026-04-20 17:30 | 40.19167 | 72.00199 | 39023 ft | 464 kts | 47° |
| 2026-04-20 17:30 | 40.23146 | 72.06864 | 39023 ft | 464 kts | 47° |
| 2026-04-20 17:31 | 40.26903 | 72.13700 | 39017 ft | 467 kts | 52° |
| 2026-04-20 17:31 | 40.30514 | 72.20761 | 39027 ft | 466 kts | 52° |
| 2026-04-20 17:32 | 40.34128 | 72.27818 | 39024 ft | 467 kts | 52° |
| 2026-04-20 17:32 | 40.37747 | 72.34917 | 39021 ft | 467 kts | 52° |
| 2026-04-20 17:33 | 40.41353 | 72.42010 | 39027 ft | 468 kts | 52° |
| 2026-04-20 17:33 | 40.44967 | 72.49137 | 39031 ft | 469 kts | 52° |
| 2026-04-20 17:34 | 40.48549 | 72.56217 | 39025 ft | 467 kts | 52° |
| 2026-04-20 17:34 | 40.52141 | 72.63332 | 39021 ft | 467 kts | 52° |
| 2026-04-20 17:35 | 40.55732 | 72.70461 | 39022 ft | 467 kts | 52° |
| 2026-04-20 17:35 | 40.59317 | 72.77595 | 39020 ft | 467 kts | 52° |
| 2026-04-20 17:36 | 40.63171 | 72.84445 | 39020 ft | 464 kts | 47° |
| 2026-04-20 17:36 | 40.67183 | 72.91116 | 39021 ft | 464 kts | 47° |
| 2026-04-20 17:37 | 40.71183 | 72.97799 | 39028 ft | 465 kts | 47° |
| 2026-04-20 17:37 | 40.75158 | 73.04453 | 39036 ft | 465 kts | 47° |
| 2026-04-20 17:38 | 40.79168 | 73.11179 | 39048 ft | 465 kts | 47° |
| 2026-04-20 17:38 | 40.83154 | 73.17879 | 39047 ft | 463 kts | 47° |
| 2026-04-20 17:39 | 40.87130 | 73.24576 | 39049 ft | 463 kts | 47° |
| 2026-04-20 17:39 | 40.91107 | 73.31290 | 39055 ft | 463 kts | 47° |
| 2026-04-20 17:40 | 40.95079 | 73.38009 | 39060 ft | 463 kts | 47° |
| 2026-04-20 17:40 | 40.99018 | 73.44688 | 39061 ft | 463 kts | 48° |
| 2026-04-20 17:41 | 41.02975 | 73.51414 | 39069 ft | 462 kts | 48° |
| 2026-04-20 17:41 | 41.06918 | 73.58129 | 39066 ft | 461 kts | 48° |
| 2026-04-20 17:42 | 41.10855 | 73.64846 | 39067 ft | 461 kts | 48° |
| 2026-04-20 17:42 | 41.14787 | 73.71569 | 39080 ft | 461 kts | 48° |
| 2026-04-20 17:43 | 41.18707 | 73.78289 | 39083 ft | 460 kts | 48° |
| 2026-04-20 17:43 | 41.22600 | 73.84980 | 39106 ft | 459 kts | 48° |
| 2026-04-20 17:44 | 41.26522 | 73.91727 | 39095 ft | 460 kts | 48° |
| 2026-04-20 17:44 | 41.30414 | 73.98443 | 39096 ft | 458 kts | 48° |
| 2026-04-20 17:45 | 41.34238 | 74.05232 | 39099 ft | 458 kts | 50° |
| 2026-04-20 17:45 | 41.37917 | 74.12108 | 39097 ft | 458 kts | 50° |
| 2026-04-20 17:46 | 41.41645 | 74.19050 | 39097 ft | 457 kts | 50° |
| 2026-04-20 17:46 | 41.45327 | 74.25883 | 39102 ft | 456 kts | 50° |
| 2026-04-20 17:47 | 41.49027 | 74.32759 | 39106 ft | 456 kts | 50° |
| 2026-04-20 17:47 | 41.52717 | 74.39634 | 39106 ft | 455 kts | 50° |
| 2026-04-20 17:48 | 41.56402 | 74.46512 | 39110 ft | 455 kts | 50° |
| 2026-04-20 17:48 | 41.60075 | 74.53386 | 39108 ft | 455 kts | 50° |
| 2026-04-20 17:49 | 41.63752 | 74.60282 | 39113 ft | 455 kts | 50° |
| 2026-04-20 17:49 | 41.67414 | 74.67165 | 39110 ft | 455 kts | 50° |
| 2026-04-20 17:50 | 41.71081 | 74.74073 | 39128 ft | 456 kts | 50° |
| 2026-04-20 17:50 | 41.74743 | 74.80987 | 39125 ft | 455 kts | 50° |
| 2026-04-20 17:51 | 41.78404 | 74.87917 | 39132 ft | 455 kts | 50° |
| 2026-04-20 17:51 | 41.82060 | 74.94851 | 39137 ft | 455 kts | 50° |
| 2026-04-20 17:52 | 41.85692 | 75.01748 | 39140 ft | 455 kts | 50° |
| 2026-04-20 17:52 | 41.89337 | 75.08687 | 39141 ft | 455 kts | 50° |
| 2026-04-20 17:53 | 41.92977 | 75.15633 | 39136 ft | 455 kts | 50° |
| 2026-04-20 17:53 | 41.96618 | 75.22597 | 39125 ft | 455 kts | 50° |
| 2026-04-20 17:54 | 42.00255 | 75.29569 | 39127 ft | 455 kts | 50° |
| 2026-04-20 17:54 | 42.03894 | 75.36563 | 39128 ft | 456 kts | 50° |
| 2026-04-20 17:55 | 42.07530 | 75.43566 | 39121 ft | 456 kts | 50° |
| 2026-04-20 17:55 | 42.11155 | 75.50564 | 39112 ft | 456 kts | 50° |
| 2026-04-20 17:56 | 42.14753 | 75.57525 | 39108 ft | 455 kts | 50° |
| 2026-04-20 17:56 | 42.18368 | 75.64534 | 39106 ft | 455 kts | 50° |
| 2026-04-20 17:57 | 42.21978 | 75.71553 | 39101 ft | 454 kts | 50° |
| 2026-04-20 17:57 | 42.25576 | 75.78564 | 39099 ft | 454 kts | 50° |
| 2026-04-20 17:58 | 42.29167 | 75.85574 | 39096 ft | 453 kts | 50° |
| 2026-04-20 17:58 | 42.32729 | 75.92547 | 39103 ft | 453 kts | 50° |
| 2026-04-20 17:59 | 42.36309 | 75.99572 | 39102 ft | 453 kts | 50° |
| 2026-04-20 17:59 | 42.39891 | 76.06616 | 39105 ft | 452 kts | 49° |
| 2026-04-20 18:00 | 42.43892 | 76.13061 | 39101 ft | 443 kts | 39° |
| 2026-04-20 18:00 | 42.48570 | 76.18417 | 39108 ft | 436 kts | 30° |
| 2026-04-20 18:01 | 42.53467 | 76.23295 | 39113 ft | 437 kts | 31° |
| 2026-04-20 18:01 | 42.57521 | 76.27364 | 39026 ft | 434 kts | 31° |
| 2026-04-20 18:01 | 42.59945 | 76.29797 | 38563 ft | 434 kts | 31° |
| 2026-04-20 18:02 | 42.62379 | 76.32234 | 37704 ft | 438 kts | 31° |
| 2026-04-20 18:02 | 42.64853 | 76.34711 | 36643 ft | 445 kts | 31° |
| 2026-04-20 18:02 | 42.67365 | 76.37228 | 35628 ft | 451 kts | 31° |
| 2026-04-20 18:02 | 42.69892 | 76.39767 | 34781 ft | 452 kts | 31° |
| 2026-04-20 18:03 | 42.72394 | 76.42284 | 33914 ft | 454 kts | 32° |
| 2026-04-20 18:03 | 42.74935 | 76.44845 | 32957 ft | 455 kts | 32° |
| 2026-04-20 18:03 | 42.77487 | 76.47419 | 32002 ft | 457 kts | 32° |
| 2026-04-20 18:03 | 42.80044 | 76.50001 | 31032 ft | 459 kts | 32° |
| 2026-04-20 18:04 | 42.82604 | 76.52589 | 30117 ft | 460 kts | 32° |
| 2026-04-20 18:04 | 42.85177 | 76.55191 | 29096 ft | 460 kts | 32° |
| 2026-04-20 18:04 | 42.87729 | 76.57775 | 28342 ft | 454 kts | 32° |
| 2026-04-20 18:04 | 42.90245 | 76.60326 | 27578 ft | 448 kts | 33° |
| 2026-04-20 18:05 | 42.95185 | 76.65333 | 26138 ft | 437 kts | 33° |
| 2026-04-20 18:05 | 42.97615 | 76.67793 | 25498 ft | 432 kts | 33° |
| 2026-04-20 18:05 | 43.00015 | 76.70225 | 24862 ft | 427 kts | 33° |
| 2026-04-20 18:06 | 43.02392 | 76.72637 | 24198 ft | 423 kts | 34° |
| 2026-04-20 18:06 | 43.04743 | 76.75026 | 23551 ft | 419 kts | 34° |
| 2026-04-20 18:06 | 43.07075 | 76.77398 | 22785 ft | 416 kts | 34° |
| 2026-04-20 18:06 | 43.09386 | 76.79752 | 22017 ft | 412 kts | 34° |
| 2026-04-20 18:07 | 43.11677 | 76.82089 | 21288 ft | 409 kts | 34° |
| 2026-04-20 18:07 | 43.13923 | 76.84383 | 20574 ft | 406 kts | 34° |
| 2026-04-20 18:07 | 43.16186 | 76.86696 | 19868 ft | 403 kts | 34° |
| 2026-04-20 18:07 | 43.18424 | 76.88985 | 19302 ft | 397 kts | 34° |
| 2026-04-20 18:08 | 43.20595 | 76.91212 | 19093 ft | 382 kts | 34° |
| 2026-04-20 18:08 | 43.22670 | 76.93337 | 19027 ft | 364 kts | 34° |
| 2026-04-20 18:08 | 43.24647 | 76.95361 | 19021 ft | 346 kts | 34° |
| 2026-04-20 18:08 | 43.26524 | 76.97281 | 19024 ft | 328 kts | 34° |
| 2026-04-20 18:09 | 43.28313 | 76.99114 | 19023 ft | 312 kts | 34° |
| 2026-04-20 18:09 | 43.30010 | 77.00852 | 19006 ft | 296 kts | 34° |
| 2026-04-20 18:09 | 43.31620 | 77.02503 | 19024 ft | 281 kts | 34° |
| 2026-04-20 18:09 | 43.33121 | 77.04045 | 19018 ft | 265 kts | 34° |
| 2026-04-20 18:10 | 43.34573 | 77.05536 | 19021 ft | 260 kts | 34° |
| 2026-04-20 18:10 | 43.36043 | 77.07040 | 19026 ft | 265 kts | 34° |
| 2026-04-20 18:10 | 43.37525 | 77.08552 | 19015 ft | 264 kts | 31° |
| 2026-04-20 18:10 | 43.39132 | 77.09744 | 18907 ft | 264 kts | 24° |
| 2026-04-20 18:11 | 43.40782 | 77.10851 | 18663 ft | 263 kts | 24° |
| 2026-04-20 18:11 | 43.42415 | 77.11948 | 18444 ft | 259 kts | 24° |
| 2026-04-20 18:11 | 43.44037 | 77.13038 | 18207 ft | 260 kts | 24° |
| 2026-04-20 18:11 | 43.45667 | 77.14134 | 17936 ft | 260 kts | 24° |
| 2026-04-20 18:12 | 43.47178 | 77.15445 | 17665 ft | 262 kts | 43° |
| 2026-04-20 18:12 | 43.48131 | 77.17589 | 17418 ft | 269 kts | 71° |
| 2026-04-20 18:12 | 43.48256 | 77.20166 | 17155 ft | 275 kts | 99° |
| 2026-04-20 18:12 | 43.47497 | 77.22589 | 16893 ft | 279 kts | 127° |
| 2026-04-20 18:13 | 43.46039 | 77.24273 | 16650 ft | 279 kts | 155° |
| 2026-04-20 18:13 | 43.44174 | 77.24878 | 16401 ft | 275 kts | 184° |
| 2026-04-20 18:13 | 43.42355 | 77.24254 | 16148 ft | 268 kts | 213° |
| 2026-04-20 18:13 | 43.41002 | 77.22582 | 15900 ft | 259 kts | 241° |
| 2026-04-20 18:14 | 43.40425 | 77.20299 | 15652 ft | 252 kts | 268° |
| 2026-04-20 18:14 | 43.40370 | 77.17902 | 15408 ft | 250 kts | 269° |
| 2026-04-20 18:14 | 43.40132 | 77.15542 | 15156 ft | 248 kts | 258° |
| 2026-04-20 18:14 | 43.39566 | 77.13289 | 14920 ft | 250 kts | 248° |
| 2026-04-20 18:15 | 43.38765 | 77.11176 | 14681 ft | 249 kts | 242° |
| 2026-04-20 18:15 | 43.37860 | 77.09193 | 14445 ft | 248 kts | 239° |
| 2026-04-20 18:15 | 43.37046 | 77.07134 | 14203 ft | 242 kts | 256° |
| 2026-04-20 18:15 | 43.36884 | 77.04870 | 13972 ft | 239 kts | 279° |
| 2026-04-20 18:16 | 43.37437 | 77.02745 | 13720 ft | 237 kts | 303° |
| 2026-04-20 18:16 | 43.38599 | 77.01140 | 13463 ft | 240 kts | 327° |
| 2026-04-20 18:16 | 43.40169 | 77.00356 | 13211 ft | 245 kts | 351° |
| 2026-04-20 18:16 | 43.41871 | 77.00584 | 12945 ft | 251 kts | 17° |
| 2026-04-20 18:17 | 43.43366 | 77.01854 | 12686 ft | 257 kts | 44° |
| 2026-04-20 18:17 | 43.44424 | 77.03849 | 12440 ft | 259 kts | 55° |
| 2026-04-20 18:17 | 43.45413 | 77.05911 | 12179 ft | 257 kts | 54° |
| 2026-04-20 18:17 | 43.46404 | 77.07959 | 12040 ft | 256 kts | 54° |
| 2026-04-20 18:18 | 43.47396 | 77.09994 | 12024 ft | 256 kts | 54° |
| 2026-04-20 18:18 | 43.48187 | 77.12196 | 12025 ft | 259 kts | 77° |
| 2026-04-20 18:18 | 43.48207 | 77.14626 | 12024 ft | 260 kts | 105° |
| 2026-04-20 18:18 | 43.47410 | 77.16821 | 12024 ft | 257 kts | 134° |
| 2026-04-20 18:19 | 43.45996 | 77.18258 | 12022 ft | 252 kts | 161° |
| 2026-04-20 18:19 | 43.44301 | 77.18673 | 12022 ft | 246 kts | 188° |
| 2026-04-20 18:19 | 43.42684 | 77.18052 | 12022 ft | 240 kts | 213° |
| 2026-04-20 18:19 | 43.41439 | 77.16580 | 12018 ft | 236 kts | 237° |
| 2026-04-20 18:20 | 43.40536 | 77.14706 | 12019 ft | 235 kts | 239° |
| 2026-04-20 18:20 | 43.39631 | 77.12833 | 12020 ft | 234 kts | 238° |
| 2026-04-20 18:20 | 43.38719 | 77.10971 | 12022 ft | 235 kts | 238° |
| 2026-04-20 18:20 | 43.37803 | 77.09111 | 12020 ft | 235 kts | 238° |
| 2026-04-20 18:21 | 43.37050 | 77.07146 | 12024 ft | 232 kts | 256° |
| 2026-04-20 18:21 | 43.36962 | 77.04953 | 12021 ft | 232 kts | 282° |
| 2026-04-20 18:21 | 43.37441 | 77.02867 | 11992 ft | 231 kts | 282° |
| 2026-04-20 18:21 | 43.37534 | 77.00677 | 11791 ft | 229 kts | 267° |
| 2026-04-20 18:22 | 43.37383 | 76.98491 | 11479 ft | 230 kts | 264° |
| 2026-04-20 18:22 | 43.37197 | 76.96306 | 11160 ft | 229 kts | 264° |
| 2026-04-20 18:22 | 43.37043 | 76.94118 | 10846 ft | 229 kts | 265° |
| 2026-04-20 18:22 | 43.36924 | 76.91942 | 10540 ft | 228 kts | 266° |
| 2026-04-20 18:23 | 43.36828 | 76.89772 | 10250 ft | 227 kts | 266° |
| 2026-04-20 18:23 | 43.36742 | 76.87613 | 9997 ft | 224 kts | 266° |
| 2026-04-20 18:23 | 43.36609 | 76.85547 | 9887 ft | 211 kts | 257° |
| 2026-04-20 18:23 | 43.36097 | 76.83742 | 9715 ft | 203 kts | 239° |
| 2026-04-20 18:24 | 43.35291 | 76.82154 | 9385 ft | 203 kts | 235° |
| 2026-04-20 18:24 | 43.34477 | 76.80564 | 9040 ft | 204 kts | 236° |
| 2026-04-20 18:24 | 43.33669 | 76.78958 | 8722 ft | 204 kts | 236° |
| 2026-04-20 18:24 | 43.32867 | 76.77358 | 8412 ft | 203 kts | 236° |
| 2026-04-20 18:25 | 43.32079 | 76.75872 | 8328 ft | 181 kts | 225° |
| 2026-04-20 18:25 | 43.31062 | 76.75053 | 8169 ft | 163 kts | 194° |
| 2026-04-20 18:25 | 43.29972 | 76.75098 | 7887 ft | 157 kts | 161° |
| 2026-04-20 18:25 | 43.29033 | 76.75854 | 7538 ft | 156 kts | 146° |
| 2026-04-20 18:26 | 43.28143 | 76.76693 | 7216 ft | 154 kts | 147° |
| 2026-04-20 18:26 | 43.27259 | 76.77511 | 6880 ft | 153 kts | 146° |
| 2026-04-20 18:26 | 43.26422 | 76.78290 | 6671 ft | 141 kts | 142° |
| 2026-04-20 18:26 | 43.25972 | 76.79454 | 6311 ft | 141 kts | 99° |
| 2026-04-20 18:27 | 43.25937 | 76.80787 | 5964 ft | 140 kts | 89° |
| 2026-04-20 18:27 | 43.25988 | 76.82118 | 5632 ft | 139 kts | 87° |
| 2026-04-20 18:27 | 43.26056 | 76.83434 | 5315 ft | 137 kts | 86° |
| 2026-04-20 18:27 | 43.26156 | 76.84719 | 5149 ft | 138 kts | 79° |
| 2026-04-20 18:28 | 43.26457 | 76.85973 | 4963 ft | 138 kts | 66° |
| 2026-04-20 18:28 | 43.26914 | 76.87131 | 4781 ft | 138 kts | 60° |
| 2026-04-20 18:28 | 43.27423 | 76.88221 | 4582 ft | 137 kts | 58° |
| 2026-04-20 18:28 | 43.27953 | 76.89306 | 4375 ft | 138 kts | 57° |
| 2026-04-20 18:29 | 43.28489 | 76.90390 | 4202 ft | 136 kts | 57° |
| 2026-04-20 18:29 | 43.29010 | 76.91473 | 3997 ft | 136 kts | 57° |
| 2026-04-20 18:29 | 43.29535 | 76.92554 | 3812 ft | 138 kts | 56° |
| 2026-04-20 18:29 | 43.30110 | 76.93677 | 3629 ft | 144 kts | 55° |
| 2026-04-20 18:30 | 43.30682 | 76.94804 | 3421 ft | 143 kts | 56° |
| 2026-04-20 18:30 | 43.31245 | 76.95918 | 3225 ft | 143 kts | 55° |
| 2026-04-20 18:30 | 43.31795 | 76.97056 | 3062 ft | 141 kts | 57° |
| 2026-04-20 18:30 | 43.32322 | 76.98155 | 2884 ft | 138 kts | 56° |
| 2026-04-20 18:31 | 43.32878 | 76.99241 | 2719 ft | 136 kts | 55° |
| 2026-04-20 18:31 | 43.33413 | 77.00294 | 2516 ft | 136 kts | 56° |
| 2026-04-20 18:31 | 43.33937 | 77.01367 | 2343 ft | 135 kts | 56° |
| 2026-04-20 18:31 | 43.34458 | 77.02418 | 2233 ft | 128 kts | 56° |
| 2026-04-20 18:32 | 43.34847 | 77.03202 | 2224 ft | 71 kts | 56° |
| 2026-04-20 18:32 | 43.35028 | 77.03569 | 2229 ft | 36 kts | 56° |
| 2026-04-20 18:32 | 43.35173 | 77.03830 | 2227 ft | 30 kts | 40° |
| 2026-04-20 18:32 | 43.35333 | 77.03975 | 2225 ft | 16 kts | 22° |
| 2026-04-20 18:33 | 43.35358 | 77.03990 | 2222 ft | 5 kts | 23° |
| 2026-04-20 18:33 | 43.35364 | 77.03993 | 2222 ft | 0 kts | 23° |
| 2026-04-20 18:33 | 43.35374 | 77.04000 | 2223 ft | 4 kts | 24° |
| 2026-04-20 18:34 | 43.35417 | 77.04025 | 2221 ft | 9 kts | 24° |
| 2026-04-20 18:34 | 43.35457 | 77.03990 | 2224 ft | 9 kts | 262° |
| 2026-04-20 18:34 | 43.35422 | 77.03901 | 2222 ft | 12 kts | 236° |
| 2026-04-20 18:34 | 43.35369 | 77.03797 | 2224 ft | 14 kts | 236° |
| 2026-04-20 18:35 | 43.35312 | 77.03679 | 2227 ft | 16 kts | 236° |
| 2026-04-20 18:35 | 43.35246 | 77.03541 | 2224 ft | 18 kts | 237° |
| 2026-04-20 18:35 | 43.35170 | 77.03397 | 2226 ft | 20 kts | 233° |
| 2026-04-20 18:35 | 43.35088 | 77.03230 | 2225 ft | 22 kts | 236° |
| 2026-04-20 18:36 | 43.34996 | 77.03047 | 2226 ft | 25 kts | 236° |
| 2026-04-20 18:36 | 43.34895 | 77.02846 | 2223 ft | 26 kts | 236° |
| 2026-04-20 18:36 | 43.34813 | 77.02679 | 2226 ft | 17 kts | 236° |
| 2026-04-20 18:36 | 43.34773 | 77.02576 | 2228 ft | 13 kts | 259° |
| 2026-04-20 18:37 | 43.34775 | 77.02445 | 2228 ft | 15 kts | 273° |
| 2026-04-20 18:37 | 43.34783 | 77.02295 | 2228 ft | 17 kts | 274° |
| 2026-04-20 18:37 | 43.34792 | 77.02123 | 2228 ft | 19 kts | 273° |
| 2026-04-20 18:37 | 43.34800 | 77.01930 | 2226 ft | 21 kts | 273° |
| 2026-04-20 18:38 | 43.34810 | 77.01716 | 2225 ft | 23 kts | 276° |
| 2026-04-20 18:38 | 43.34817 | 77.01555 | 2228 ft | 13 kts | 273° |
| 2026-04-20 18:38 | 43.34859 | 77.01506 | 2228 ft | 9 kts | 336° |
| 2026-04-20 18:38 | 43.34872 | 77.01475 | 2229 ft | 4 kts | 270° |
| 2026-04-20 18:39 | 43.34858 | 77.01433 | 2224 ft | 7 kts | 247° |
| 2026-04-20 18:39 | 43.34843 | 77.01388 | 2229 ft | 4 kts | 245° |
| 2026-04-20 18:39 | 43.34840 | 77.01379 | 2229 ft | 0 kts | 245° |